createdAt,value
2022-12-19T00:01:16.658Z,65.08
2022-12-19T00:02:18.632Z,65.24
2022-12-19T00:03:20.273Z,64.62
2022-12-19T00:04:21.948Z,64.64
2022-12-19T00:05:23.472Z,65.00
2022-12-19T00:06:27.771Z,64.36
2022-12-19T00:07:29.546Z,64.37
2022-12-19T00:08:31.028Z,64.65
2022-12-19T00:09:32.503Z,64.66
2022-12-19T00:10:35.842Z,65.16
2022-12-19T00:11:38.649Z,65.70
2022-12-19T00:12:40.166Z,65.12
2022-12-19T00:13:42.792Z,65.65
2022-12-19T00:14:44.326Z,65.35
2022-12-19T00:15:45.812Z,66.01
2022-12-19T00:16:47.665Z,66.06
2022-12-19T00:17:49.591Z,66.13
2022-12-19T00:18:55.086Z,66.18
2022-12-19T00:19:57.079Z,66.75
2022-12-19T00:21:04.627Z,67.01
2022-12-19T00:22:11.001Z,67.02
2022-12-19T00:23:12.694Z,66.39
2022-12-19T00:24:21.145Z,66.31
2022-12-19T00:25:23.191Z,66.53
2022-12-19T00:26:28.859Z,65.58
2022-12-19T00:27:35.187Z,65.43
2022-12-19T00:28:36.647Z,66.16
2022-12-19T00:29:38.094Z,65.61
2022-12-19T00:30:39.564Z,65.53
2022-12-19T00:31:41.424Z,66.29
2022-12-19T00:32:42.954Z,66.32
2022-12-19T00:33:44.949Z,65.44
2022-12-19T00:34:46.342Z,65.50
2022-12-19T00:35:47.845Z,66.09
2022-12-19T00:36:49.610Z,66.37
2022-12-19T00:37:51.066Z,66.91
2022-12-19T00:38:54.504Z,66.63
2022-12-19T00:39:55.949Z,66.73
2022-12-19T00:41:11.424Z,66.27
2022-12-19T00:42:13.106Z,66.51
2022-12-19T00:43:14.575Z,67.04
2022-12-19T00:44:16.184Z,66.41
2022-12-19T00:45:17.613Z,66.48
2022-12-19T00:46:19.121Z,66.37
2022-12-19T00:47:21.033Z,66.59
2022-12-19T00:48:22.479Z,66.51
2022-12-19T00:49:23.898Z,66.46
2022-12-19T00:50:25.440Z,66.51
2022-12-19T00:51:30.281Z,66.36
2022-12-19T00:52:32.136Z,66.04
2022-12-19T00:53:35.222Z,66.64
2022-12-19T00:54:36.796Z,66.16
2022-12-19T00:55:39.045Z,66.25
2022-12-19T00:56:40.519Z,65.56
2022-12-19T00:57:41.939Z,65.34
2022-12-19T00:58:47.045Z,65.54
2022-12-19T00:59:49.062Z,65.67
2022-12-19T01:00:50.578Z,65.46
2022-12-19T01:01:52.406Z,66.15
2022-12-19T01:02:53.919Z,66.11
2022-12-19T01:04:27.074Z,66.25
2022-12-19T01:05:19.536Z,66.68
2022-12-19T01:06:21.041Z,66.06
2022-12-19T01:07:22.891Z,65.56
2022-12-19T01:08:24.546Z,65.72
2022-12-19T01:09:27.150Z,65.78
2022-12-19T01:10:28.583Z,65.49
2022-12-19T01:11:48.557Z,66.40
2022-12-19T01:12:49.965Z,67.24
2022-12-19T01:13:51.406Z,66.16
2022-12-19T01:14:54.520Z,66.27
2022-12-19T01:16:10.246Z,65.95
2022-12-19T01:17:12.421Z,65.95
2022-12-19T01:18:13.905Z,66.51
2022-12-19T01:19:15.346Z,66.44
2022-12-19T01:20:29.010Z,66.36
2022-12-19T01:21:31.493Z,65.74
2022-12-19T01:22:33.406Z,66.17
2022-12-19T01:23:36.611Z,66.27
2022-12-19T01:24:38.128Z,66.21
2022-12-19T01:25:40.877Z,66.23
2022-12-19T01:26:47.322Z,66.23
2022-12-19T01:27:48.722Z,65.85
2022-12-19T01:28:50.176Z,66.34
2022-12-19T01:29:52.916Z,66.01
2022-12-19T01:30:54.557Z,66.21
2022-12-19T01:31:56.380Z,65.93
2022-12-19T01:32:58.834Z,66.32
2022-12-19T01:34:00.759Z,66.78
2022-12-19T01:35:04.043Z,66.61
2022-12-19T01:36:07.775Z,65.67
2022-12-19T01:37:09.553Z,65.44
2022-12-19T01:38:16.278Z,65.44
2022-12-19T01:39:17.745Z,65.71
2022-12-19T01:40:20.758Z,65.80
2022-12-19T01:41:22.567Z,65.86
2022-12-19T01:42:24.315Z,65.91
2022-12-19T01:43:29.893Z,65.85
2022-12-19T01:44:31.503Z,65.87
2022-12-19T01:45:36.591Z,66.22
2022-12-19T01:46:50.367Z,66.43
2022-12-19T01:47:56.544Z,65.81
2022-12-19T01:48:59.845Z,66.15
2022-12-19T01:50:03.440Z,66.55
2022-12-19T01:51:35.185Z,66.40
2022-12-19T01:52:36.977Z,66.54
2022-12-19T01:53:45.757Z,65.58
2022-12-19T01:54:50.649Z,65.88
2022-12-19T01:55:52.729Z,65.58
2022-12-19T01:56:57.823Z,65.84
2022-12-19T01:58:01.336Z,66.53
2022-12-19T01:59:07.972Z,66.22
2022-12-19T02:00:10.203Z,67.08
2022-12-19T02:01:12.291Z,66.51
2022-12-19T02:02:23.450Z,66.26
2022-12-19T02:03:28.377Z,66.08
2022-12-19T02:04:32.649Z,66.19
2022-12-19T02:05:34.309Z,66.03
2022-12-19T02:06:36.234Z,66.63
2022-12-19T02:07:38.758Z,65.98
2022-12-19T02:08:42.194Z,66.46
2022-12-19T02:09:56.586Z,66.79
2022-12-19T02:10:58.222Z,66.95
2022-12-19T02:12:00.757Z,66.56
2022-12-19T02:13:02.795Z,66.44
2022-12-19T02:14:07.026Z,65.91
2022-12-19T02:15:10.528Z,65.93
2022-12-19T02:16:42.206Z,66.50
2022-12-19T02:17:52.969Z,67.06
2022-12-19T02:19:22.915Z,67.08
2022-12-19T02:21:12.017Z,66.99
2022-12-19T02:22:21.192Z,67.45
2022-12-19T02:23:46.236Z,67.12
2022-12-19T02:25:00.097Z,66.81
2022-12-19T02:26:24.634Z,66.87
2022-12-19T02:27:51.863Z,66.23
2022-12-19T02:29:19.203Z,66.62
2022-12-19T02:30:42.305Z,66.19
2022-12-19T02:31:52.692Z,66.15
2022-12-19T02:33:03.276Z,66.52
2022-12-19T02:34:33.326Z,66.52
2022-12-19T02:36:11.443Z,65.98
2022-12-19T02:37:26.480Z,65.94
2022-12-19T02:38:39.197Z,66.62
2022-12-19T02:39:52.462Z,67.22
2022-12-19T02:41:05.049Z,66.91
2022-12-19T02:42:10.297Z,66.66
2022-12-19T02:43:15.771Z,66.32
2022-12-19T02:44:31.920Z,66.75
2022-12-19T02:45:39.422Z,66.66
2022-12-19T02:46:43.410Z,66.52
2022-12-19T02:47:47.585Z,66.99
2022-12-19T02:48:50.046Z,66.69
2022-12-19T02:49:51.472Z,65.88
2022-12-19T02:50:53.004Z,65.82
2022-12-19T02:51:54.440Z,66.48
2022-12-19T02:52:55.863Z,66.28
2022-12-19T02:53:57.297Z,66.23
2022-12-19T02:55:06.625Z,66.07
2022-12-19T02:56:31.287Z,65.92
2022-12-19T02:58:11.249Z,66.79
2022-12-19T02:59:31.000Z,66.26
2022-12-19T03:00:40.882Z,66.22
2022-12-19T03:01:49.763Z,66.17
2022-12-19T03:03:16.976Z,66.69
2022-12-19T03:04:44.692Z,66.34
2022-12-19T03:06:14.156Z,66.52
2022-12-19T03:07:24.386Z,66.84
2022-12-19T03:08:36.508Z,67.35
2022-12-19T03:09:50.585Z,68.43
2022-12-19T03:10:57.283Z,67.64
2022-12-19T03:12:17.598Z,66.79
2022-12-19T03:13:22.945Z,67.18
2022-12-19T03:14:26.510Z,67.26
2022-12-19T03:15:28.665Z,67.75
2022-12-19T03:16:30.171Z,67.94
2022-12-19T03:17:37.055Z,68.05
2022-12-19T03:18:39.325Z,67.85
2022-12-19T03:19:41.479Z,67.91
2022-12-19T03:21:04.422Z,68.03
2022-12-19T03:22:07.586Z,67.57
2022-12-19T03:23:09.341Z,67.88
2022-12-19T03:24:12.944Z,67.64
2022-12-19T03:25:14.432Z,67.80
2022-12-19T03:26:21.009Z,68.04
2022-12-19T03:27:29.195Z,68.28
2022-12-19T03:28:40.315Z,67.95
2022-12-19T03:30:00.992Z,68.16
2022-12-19T03:31:04.190Z,68.28
2022-12-19T03:32:09.172Z,69.23
2022-12-19T03:33:14.017Z,69.29
2022-12-19T03:34:49.141Z,68.77
2022-12-19T03:35:52.301Z,68.12
2022-12-19T03:37:01.304Z,68.66
2022-12-19T03:38:05.575Z,68.86
2022-12-19T03:39:10.382Z,68.70
2022-12-19T03:40:17.406Z,68.32
2022-12-19T03:41:42.099Z,68.14
2022-12-19T03:43:05.822Z,68.23
2022-12-19T03:44:09.621Z,68.75
2022-12-19T03:45:13.567Z,69.14
2022-12-19T03:46:27.007Z,68.48
2022-12-19T03:47:33.944Z,68.18
2022-12-19T03:48:47.914Z,70.15
2022-12-19T03:49:50.264Z,69.96
2022-12-19T03:51:16.232Z,69.82
2022-12-19T03:52:44.097Z,69.92
2022-12-19T03:53:57.796Z,70.06
2022-12-19T03:55:22.733Z,69.74
2022-12-19T03:56:36.197Z,69.69
2022-12-19T03:57:56.710Z,69.68
2022-12-19T03:59:05.291Z,69.87
2022-12-19T04:00:12.771Z,69.59
2022-12-19T04:01:14.562Z,69.80
2022-12-19T04:02:19.568Z,69.47
2022-12-19T04:03:22.428Z,69.16
2022-12-19T04:04:25.900Z,69.97
2022-12-19T04:05:29.211Z,70.03
2022-12-19T04:06:33.097Z,69.90
2022-12-19T04:07:36.720Z,69.72
2022-12-19T04:08:38.660Z,69.82
2022-12-19T04:09:42.512Z,69.47
2022-12-19T04:10:50.120Z,69.54
2022-12-19T04:11:57.888Z,69.36
2022-12-19T04:13:04.987Z,69.12
2022-12-19T04:14:11.733Z,69.11
2022-12-19T04:15:14.038Z,68.90
2022-12-19T04:16:27.602Z,69.01
2022-12-19T04:17:45.272Z,69.16
2022-12-19T04:18:52.869Z,69.36
2022-12-19T04:20:10.633Z,69.00
2022-12-19T04:21:20.185Z,69.84
2022-12-19T04:22:37.318Z,69.77
2022-12-19T04:23:45.322Z,69.81
2022-12-19T04:24:50.101Z,69.76
2022-12-19T04:25:58.196Z,69.80
2022-12-19T04:27:03.652Z,69.14
2022-12-19T04:28:15.195Z,68.76
2022-12-19T04:29:18.256Z,68.85
2022-12-19T04:30:20.099Z,68.80
2022-12-19T04:31:22.953Z,70.08
2022-12-19T04:32:27.304Z,69.07
2022-12-19T04:33:28.743Z,68.88
2022-12-19T04:34:30.247Z,69.45
2022-12-19T04:35:31.920Z,68.73
2022-12-19T04:36:33.781Z,69.38
2022-12-19T04:37:35.394Z,69.86
2022-12-19T04:38:37.132Z,69.46
2022-12-19T04:39:38.655Z,69.37
2022-12-19T04:40:41.755Z,69.92
2022-12-19T04:41:43.363Z,69.75
2022-12-19T04:42:45.167Z,69.70
2022-12-19T04:43:46.733Z,70.09
2022-12-19T04:44:48.206Z,70.17
2022-12-19T04:45:54.037Z,69.93
2022-12-19T04:46:58.511Z,70.19
2022-12-19T04:48:00.039Z,69.28
2022-12-19T04:49:01.703Z,69.90
2022-12-19T04:50:04.026Z,69.69
2022-12-19T04:51:05.611Z,70.66
2022-12-19T04:52:07.129Z,70.81
2022-12-19T04:53:09.993Z,70.67
2022-12-19T04:54:12.755Z,70.53
2022-12-19T04:55:14.298Z,70.36
2022-12-19T04:56:15.820Z,69.93
2022-12-19T04:57:17.300Z,69.65
2022-12-19T04:58:21.865Z,69.94
2022-12-19T04:59:23.948Z,69.86
2022-12-19T05:00:25.413Z,70.45
2022-12-19T05:01:27.255Z,71.06
2022-12-19T05:02:28.978Z,70.83
2022-12-19T05:03:30.687Z,71.12
2022-12-19T05:04:32.178Z,71.67
2022-12-19T05:05:33.695Z,71.15
2022-12-19T05:06:35.137Z,70.99
2022-12-19T05:07:36.937Z,71.11
2022-12-19T05:08:40.342Z,71.12
2022-12-19T05:09:41.786Z,70.84
2022-12-19T05:10:43.263Z,70.40
2022-12-19T05:11:45.428Z,70.30
2022-12-19T05:12:46.881Z,70.98
2022-12-19T05:13:49.961Z,70.50
2022-12-19T05:14:51.543Z,70.41
2022-12-19T05:16:01.444Z,71.08
2022-12-19T05:17:03.625Z,71.27
2022-12-19T05:18:05.235Z,71.73
2022-12-19T05:19:06.728Z,71.03
2022-12-19T05:20:09.070Z,71.24
2022-12-19T05:21:11.043Z,71.86
2022-12-19T05:22:12.859Z,71.49
2022-12-19T05:23:17.794Z,70.99
2022-12-19T05:24:19.568Z,71.90
2022-12-19T05:25:21.039Z,72.11
2022-12-19T05:26:22.516Z,72.00
2022-12-19T05:27:24.284Z,71.54
2022-12-19T05:28:25.818Z,71.64
2022-12-19T05:29:27.236Z,71.58
2022-12-19T05:30:28.666Z,71.24
2022-12-19T05:31:30.434Z,71.79
2022-12-19T05:32:32.745Z,71.01
2022-12-19T05:33:34.413Z,71.11
2022-12-19T05:34:35.898Z,71.91
2022-12-19T05:35:38.058Z,71.46
2022-12-19T05:36:39.874Z,71.29
2022-12-19T05:37:41.307Z,71.72
2022-12-19T05:38:43.216Z,71.41
2022-12-19T05:39:44.676Z,71.24
2022-12-19T05:40:46.120Z,71.50
2022-12-19T05:41:49.167Z,71.11
2022-12-19T05:42:50.885Z,70.47
2022-12-19T05:43:54.849Z,71.13
2022-12-19T05:44:56.311Z,71.27
2022-12-19T05:45:57.730Z,71.17
2022-12-19T05:46:59.253Z,71.40
2022-12-19T05:48:01.592Z,71.34
2022-12-19T05:49:03.538Z,71.17
2022-12-19T05:50:05.841Z,71.32
2022-12-19T05:51:07.299Z,71.01
2022-12-19T05:52:10.451Z,71.16
2022-12-19T05:53:11.802Z,70.76
2022-12-19T05:54:13.260Z,70.66
2022-12-19T05:55:14.819Z,70.57
2022-12-19T05:56:19.560Z,70.61
2022-12-19T05:57:21.376Z,70.22
2022-12-19T05:58:22.785Z,70.10
2022-12-19T05:59:24.379Z,70.12
2022-12-19T06:00:25.830Z,70.10
2022-12-19T06:01:28.643Z,70.71
2022-12-19T06:02:33.732Z,70.83
2022-12-19T06:03:35.752Z,70.21
2022-12-19T06:04:37.281Z,69.59
2022-12-19T06:05:38.963Z,69.73
2022-12-19T06:06:40.541Z,69.81
2022-12-19T06:07:41.955Z,70.52
2022-12-19T06:08:43.893Z,71.05
2022-12-19T06:09:45.310Z,70.97
2022-12-19T06:10:46.741Z,70.91
2022-12-19T06:11:48.248Z,70.81
2022-12-19T06:12:49.648Z,70.65
2022-12-19T06:13:51.995Z,71.48
2022-12-19T06:14:53.443Z,70.84
2022-12-19T06:16:02.844Z,71.40
2022-12-19T06:17:04.638Z,71.60
2022-12-19T06:18:06.114Z,71.26
2022-12-19T06:19:07.611Z,71.54
2022-12-19T06:20:09.656Z,71.29
2022-12-19T06:21:14.615Z,71.92
2022-12-19T06:22:16.087Z,71.72
2022-12-19T06:23:17.557Z,71.93
2022-12-19T06:24:19.067Z,72.04
2022-12-19T06:25:20.543Z,71.90
2022-12-19T06:26:22.640Z,71.55
2022-12-19T06:27:24.112Z,71.43
2022-12-19T06:28:26.674Z,72.01
2022-12-19T06:29:28.172Z,71.68
2022-12-19T06:30:29.720Z,71.58
2022-12-19T06:31:31.229Z,71.63
2022-12-19T06:32:37.693Z,71.34
2022-12-19T06:33:39.880Z,71.65
2022-12-19T06:35:03.586Z,71.03
2022-12-19T06:36:16.863Z,71.78
2022-12-19T06:37:18.342Z,71.29
2022-12-19T06:38:19.776Z,71.37
2022-12-19T06:39:22.386Z,71.06
2022-12-19T06:40:42.438Z,70.82
2022-12-19T06:42:02.802Z,70.85
2022-12-19T06:43:04.245Z,70.53
2022-12-19T06:44:09.533Z,70.77
2022-12-19T06:45:12.316Z,71.07
2022-12-19T06:46:14.162Z,71.01
2022-12-19T06:47:16.253Z,70.70
2022-12-19T06:48:17.672Z,70.72
2022-12-19T06:49:19.545Z,70.47
2022-12-19T06:50:21.003Z,70.35
2022-12-19T06:51:23.675Z,70.79
2022-12-19T06:52:25.769Z,71.16
2022-12-19T06:53:27.863Z,71.25
2022-12-19T06:54:29.753Z,70.78
2022-12-19T06:55:31.671Z,70.64
2022-12-19T06:56:37.934Z,70.74
2022-12-19T06:57:45.919Z,71.03
2022-12-19T06:58:47.721Z,72.47
2022-12-19T06:59:49.154Z,73.50
2022-12-19T07:00:51.024Z,73.89
2022-12-19T07:02:08.285Z,73.62
2022-12-19T07:03:13.616Z,73.90
2022-12-19T07:04:23.868Z,72.69
2022-12-19T07:05:26.195Z,72.21
2022-12-19T07:06:28.564Z,72.50
2022-12-19T07:07:30.166Z,72.11
2022-12-19T07:08:31.833Z,72.83
2022-12-19T07:09:34.011Z,73.38
2022-12-19T07:10:35.731Z,73.62
2022-12-19T07:11:37.524Z,74.03
2022-12-19T07:12:38.965Z,73.75
2022-12-19T07:13:40.437Z,74.22
2022-12-19T07:14:42.258Z,73.94
2022-12-19T07:15:43.779Z,73.85
2022-12-19T07:16:47.279Z,73.28
2022-12-19T07:17:48.852Z,73.61
2022-12-19T07:18:50.360Z,73.74
2022-12-19T07:19:54.472Z,74.19
2022-12-19T07:20:56.855Z,73.85
2022-12-19T07:22:00.488Z,73.75
2022-12-19T07:23:04.460Z,73.44
2022-12-19T07:24:07.149Z,72.92
2022-12-19T07:25:10.596Z,73.08
2022-12-19T07:26:13.147Z,73.17
2022-12-19T07:27:14.880Z,72.77
2022-12-19T07:28:16.743Z,71.84
2022-12-19T07:29:18.207Z,71.75
2022-12-19T07:30:19.920Z,72.36
2022-12-19T07:31:21.760Z,72.58
2022-12-19T07:32:23.292Z,72.29
2022-12-19T07:33:24.873Z,72.10
2022-12-19T07:34:26.507Z,73.12
2022-12-19T07:35:27.957Z,73.35
2022-12-19T07:36:29.741Z,73.20
2022-12-19T07:37:31.201Z,73.92
2022-12-19T07:38:32.668Z,73.90
2022-12-19T07:39:34.063Z,73.11
2022-12-19T07:40:35.851Z,72.99
2022-12-19T07:41:38.812Z,73.53
2022-12-19T07:42:40.343Z,73.34
2022-12-19T07:43:41.836Z,73.33
2022-12-19T07:44:43.321Z,73.78
2022-12-19T07:45:48.175Z,73.25
2022-12-19T07:46:49.654Z,73.81
2022-12-19T07:47:51.068Z,73.47
2022-12-19T07:48:52.470Z,72.85
2022-12-19T07:49:54.049Z,73.81
2022-12-19T07:50:55.798Z,74.36
2022-12-19T07:51:57.276Z,74.26
2022-12-19T07:52:59.045Z,74.51
2022-12-19T07:54:00.457Z,74.14
2022-12-19T07:55:02.156Z,75.31
2022-12-19T07:56:03.939Z,75.14
2022-12-19T07:57:05.775Z,74.88
2022-12-19T07:58:07.780Z,74.77
2022-12-19T07:59:09.369Z,74.98
2022-12-19T08:00:11.540Z,74.77
2022-12-19T08:01:13.559Z,74.71
2022-12-19T08:02:15.083Z,73.97
2022-12-19T08:03:16.688Z,74.79
2022-12-19T08:04:18.168Z,75.29
2022-12-19T08:05:20.032Z,74.91
2022-12-19T08:06:21.921Z,75.51
2022-12-19T08:07:23.415Z,75.61
2022-12-19T08:08:24.916Z,75.13
2022-12-19T08:09:27.759Z,74.95
2022-12-19T08:10:29.672Z,74.81
2022-12-19T08:11:31.124Z,73.81
2022-12-19T08:12:33.740Z,73.86
2022-12-19T08:13:40.798Z,73.80
2022-12-19T08:14:44.652Z,73.40
2022-12-19T08:15:46.552Z,73.04
2022-12-19T08:17:18.726Z,73.08
2022-12-19T08:18:09.434Z,73.40
2022-12-19T08:19:11.137Z,73.67
2022-12-19T08:20:13.434Z,73.21
2022-12-19T08:21:15.556Z,73.14
2022-12-19T08:22:17.074Z,73.48
2022-12-19T08:23:22.036Z,73.12
2022-12-19T08:24:23.509Z,73.29
2022-12-19T08:25:25.140Z,74.29
2022-12-19T08:26:28.313Z,73.71
2022-12-19T08:27:31.603Z,74.00
2022-12-19T08:28:34.465Z,73.84
2022-12-19T08:29:35.937Z,73.43
2022-12-19T08:30:41.402Z,74.13
2022-12-19T08:31:43.296Z,74.17
2022-12-19T08:32:45.304Z,73.67
2022-12-19T08:33:47.606Z,73.83
2022-12-19T08:34:50.093Z,73.15
2022-12-19T08:35:51.667Z,74.38
2022-12-19T08:36:53.603Z,73.96
2022-12-19T08:37:55.106Z,73.74
2022-12-19T08:38:56.548Z,73.13
2022-12-19T08:39:58.545Z,72.98
2022-12-19T08:41:00.273Z,72.71
2022-12-19T08:42:02.228Z,72.48
2022-12-19T08:43:03.826Z,72.45
2022-12-19T08:44:05.414Z,72.68
2022-12-19T08:45:07.839Z,72.64
2022-12-19T08:46:10.271Z,72.64
2022-12-19T08:47:11.738Z,72.69
2022-12-19T08:48:13.155Z,72.50
2022-12-19T08:49:15.524Z,72.25
2022-12-19T08:50:17.208Z,72.13
2022-12-19T08:51:20.128Z,71.75
2022-12-19T08:52:21.644Z,71.43
2022-12-19T08:53:26.559Z,71.22
2022-12-19T08:54:28.556Z,71.01
2022-12-19T08:55:30.084Z,70.94
2022-12-19T08:56:32.963Z,71.65
2022-12-19T08:57:34.468Z,71.42
2022-12-19T08:58:36.655Z,72.02
2022-12-19T08:59:38.093Z,72.07
2022-12-19T09:00:40.298Z,72.31
2022-12-19T09:01:42.331Z,72.41
2022-12-19T09:02:44.087Z,72.13
2022-12-19T09:05:06.247Z,72.38
2022-12-19T09:06:03.479Z,72.34
2022-12-19T09:06:31.284Z,71.99
2022-12-19T09:07:34.564Z,72.04
2022-12-19T09:08:40.973Z,71.55
2022-12-19T09:09:42.557Z,71.36
2022-12-19T09:10:44.048Z,71.54
2022-12-19T09:11:48.295Z,71.55
2022-12-19T09:12:55.751Z,71.51
2022-12-19T09:13:59.653Z,71.79
2022-12-19T09:15:01.108Z,72.45
2022-12-19T09:16:08.920Z,72.68
2022-12-19T09:17:10.810Z,72.45
2022-12-19T09:18:12.293Z,72.50
2022-12-19T09:19:16.338Z,72.35
2022-12-19T09:20:22.990Z,71.92
2022-12-19T09:21:27.816Z,72.18
2022-12-19T09:22:29.755Z,71.92
2022-12-19T09:23:34.403Z,72.58
2022-12-19T09:24:39.139Z,73.07
2022-12-19T09:25:41.288Z,74.14
2022-12-19T09:26:44.393Z,74.06
2022-12-19T09:28:17.974Z,73.74
2022-12-19T09:29:19.634Z,73.99
2022-12-19T09:30:22.594Z,73.21
2022-12-19T09:31:25.465Z,73.09
2022-12-19T09:32:27.062Z,72.20
2022-12-19T09:33:30.684Z,72.57
2022-12-19T09:34:37.335Z,72.63
2022-12-19T09:35:39.733Z,72.00
2022-12-19T09:36:41.716Z,73.14
2022-12-19T09:37:43.156Z,72.91
2022-12-19T09:38:45.804Z,73.46
2022-12-19T09:39:48.358Z,73.57
2022-12-19T09:41:10.160Z,72.33
2022-12-19T09:42:26.616Z,71.63
2022-12-19T09:43:54.693Z,71.15
2022-12-19T09:45:08.751Z,71.43
2022-12-19T09:46:19.295Z,71.72
2022-12-19T09:47:25.262Z,72.19
2022-12-19T09:48:26.913Z,72.40
2022-12-19T09:49:34.480Z,72.17
2022-12-19T09:51:11.161Z,72.44
2022-12-19T09:52:23.307Z,71.46
2022-12-19T09:53:38.198Z,71.37
2022-12-19T09:54:45.597Z,71.32
2022-12-19T09:55:48.183Z,71.36
2022-12-19T09:56:54.343Z,71.21
2022-12-19T09:58:04.737Z,71.17
2022-12-19T09:59:16.388Z,71.35
2022-12-19T10:00:20.053Z,71.75
2022-12-19T10:01:30.850Z,71.36
2022-12-19T10:02:45.681Z,70.82
2022-12-19T10:03:59.222Z,71.32
2022-12-19T10:05:31.106Z,71.15
2022-12-19T10:07:16.111Z,70.53
2022-12-19T10:08:08.267Z,71.54
2022-12-19T10:10:29.299Z,71.69
2022-12-19T10:12:40.458Z,73.15
2022-12-19T10:12:45.447Z,71.93
2022-12-19T10:13:49.776Z,72.88
2022-12-19T10:15:43.134Z,72.79
2022-12-19T10:17:26.796Z,72.10
2022-12-19T10:18:56.789Z,71.47
2022-12-19T10:20:19.504Z,71.39
2022-12-19T10:22:15.521Z,72.65
2022-12-19T10:23:18.923Z,72.91
2022-12-19T10:24:55.236Z,72.56
2022-12-19T10:26:22.483Z,72.13
2022-12-19T10:27:37.542Z,72.15
2022-12-19T10:28:45.681Z,71.93
2022-12-19T10:30:01.267Z,71.80
2022-12-19T10:31:22.189Z,72.93
2022-12-19T10:32:40.915Z,72.64
2022-12-19T10:33:59.469Z,73.38
2022-12-19T10:35:01.537Z,73.73
2022-12-19T10:36:10.472Z,73.98
2022-12-19T10:37:28.785Z,73.94
2022-12-19T10:38:46.224Z,72.67
2022-12-19T10:40:00.841Z,72.34
2022-12-19T10:41:24.125Z,72.25
2022-12-19T10:42:28.664Z,71.47
2022-12-19T10:43:52.159Z,70.99
2022-12-19T10:44:57.461Z,71.63
2022-12-19T10:46:03.795Z,71.43
2022-12-19T10:47:05.495Z,72.03
2022-12-19T10:48:15.733Z,72.22
2022-12-19T10:49:36.539Z,72.57
2022-12-19T10:50:38.369Z,72.89
2022-12-19T10:51:40.861Z,72.50
2022-12-19T10:52:54.772Z,71.84
2022-12-19T10:53:58.895Z,71.46
2022-12-19T10:55:00.349Z,71.57
2022-12-19T10:56:13.076Z,71.43
2022-12-19T10:57:26.169Z,72.10
2022-12-19T10:58:36.540Z,71.42
2022-12-19T10:59:38.043Z,71.54
2022-12-19T11:01:01.727Z,71.58
2022-12-19T11:02:27.265Z,70.96
2022-12-19T11:03:29.381Z,71.40
2022-12-19T11:04:36.465Z,71.09
2022-12-19T11:05:51.270Z,71.40
2022-12-19T11:07:03.593Z,71.41
2022-12-19T11:08:08.131Z,71.05
2022-12-19T11:09:18.858Z,71.84
2022-12-19T11:12:05.674Z,72.58
2022-12-19T11:15:41.010Z,71.84
2022-12-19T11:17:05.001Z,71.52
2022-12-19T11:19:51.746Z,71.33
2022-12-19T11:23:22.252Z,71.23
2022-12-19T11:24:24.707Z,70.52
2022-12-19T11:29:33.802Z,70.78
2022-12-19T11:29:34.036Z,70.82
2022-12-19T11:29:38.747Z,70.48
2022-12-19T11:29:47.129Z,71.08
2022-12-19T11:30:08.652Z,71.12
2022-12-19T11:30:37.988Z,71.54
2022-12-19T11:30:39.347Z,71.61
2022-12-19T11:32:42.997Z,70.50
2022-12-19T11:33:46.227Z,70.33
2022-12-19T11:34:49.625Z,70.97
2022-12-19T11:35:54.344Z,70.77
2022-12-19T11:37:03.794Z,71.14
2022-12-19T11:38:08.360Z,71.10
2022-12-19T11:39:22.175Z,71.09
2022-12-19T11:40:49.250Z,72.13
2022-12-19T11:42:10.516Z,71.38
2022-12-19T11:44:56.967Z,72.04
2022-12-19T11:46:08.301Z,72.11
2022-12-19T11:47:35.989Z,71.64
2022-12-19T11:48:40.127Z,71.57
2022-12-19T11:49:51.833Z,71.46
2022-12-19T11:51:14.824Z,70.71
2022-12-19T11:53:57.282Z,70.62
2022-12-19T11:55:15.720Z,71.26
2022-12-19T11:56:21.746Z,70.86
2022-12-19T11:57:24.628Z,71.83
2022-12-19T11:58:31.660Z,71.12
2022-12-19T11:59:38.191Z,70.11
2022-12-19T12:00:50.962Z,70.30
2022-12-19T12:02:16.895Z,69.79
2022-12-19T12:04:02.299Z,70.67
2022-12-19T12:05:16.661Z,70.16
2022-12-19T12:06:20.797Z,69.90
2022-12-19T12:08:16.211Z,70.03
2022-12-19T12:12:48.295Z,69.83
2022-12-19T12:16:16.098Z,69.50
2022-12-19T12:21:46.711Z,68.99
2022-12-19T12:24:13.255Z,69.57
2022-12-19T12:30:45.033Z,69.46
2022-12-19T12:31:15.117Z,69.32
2022-12-19T12:31:16.284Z,69.41
2022-12-19T12:31:17.815Z,69.25
2022-12-19T12:31:28.655Z,70.16
2022-12-19T12:31:41.207Z,68.83
2022-12-19T12:31:44.724Z,69.63
2022-12-19T12:31:49.210Z,69.94
2022-12-19T12:31:54.114Z,69.90
2022-12-19T12:35:54.428Z,69.27
2022-12-19T12:37:15.846Z,68.79
2022-12-19T12:38:36.660Z,69.49
2022-12-19T12:39:50.531Z,69.46
2022-12-19T12:41:44.080Z,68.98
2022-12-19T12:43:02.920Z,69.31
2022-12-19T12:44:11.253Z,69.75
2022-12-19T12:45:19.219Z,70.19
2022-12-19T12:46:26.142Z,70.30
2022-12-19T12:47:29.001Z,69.63
2022-12-19T12:48:36.709Z,69.12
2022-12-19T12:49:48.384Z,69.45
2022-12-19T12:50:54.981Z,69.12
2022-12-19T12:51:59.981Z,70.29
2022-12-19T12:53:07.373Z,70.58
2022-12-19T12:54:17.385Z,70.34
2022-12-19T12:55:40.252Z,69.84
2022-12-19T12:56:42.651Z,70.34
2022-12-19T12:57:44.123Z,70.45
2022-12-19T12:58:49.802Z,70.04
2022-12-19T13:00:17.843Z,70.29
2022-12-19T13:01:32.514Z,69.80
2022-12-19T13:02:34.309Z,69.84
2022-12-19T13:03:41.920Z,68.93
2022-12-19T13:04:56.784Z,69.11
2022-12-19T13:06:20.995Z,68.59
2022-12-19T13:07:30.046Z,68.60
2022-12-19T13:08:34.269Z,68.87
2022-12-19T13:09:36.968Z,68.52
2022-12-19T13:10:40.034Z,69.02
2022-12-19T13:12:04.855Z,69.58
2022-12-19T13:13:17.408Z,69.33
2022-12-19T13:14:39.624Z,68.87
2022-12-19T13:15:45.823Z,68.77
2022-12-19T13:16:53.005Z,68.46
2022-12-19T13:17:54.703Z,68.42
2022-12-19T13:19:19.615Z,68.12
2022-12-19T13:20:24.097Z,68.83
2022-12-19T13:22:04.271Z,68.42
2022-12-19T13:23:26.011Z,68.87
2022-12-19T13:24:39.158Z,68.46
2022-12-19T13:25:40.613Z,69.16
2022-12-19T13:26:49.288Z,69.56
2022-12-19T13:27:57.494Z,68.82
2022-12-19T13:29:26.549Z,69.00
2022-12-19T13:31:11.636Z,68.45
2022-12-19T13:32:15.683Z,68.87
2022-12-19T13:33:17.176Z,69.64
2022-12-19T13:34:19.302Z,69.13
2022-12-19T13:36:25.238Z,69.09
2022-12-19T13:39:55.542Z,69.04
2022-12-19T13:39:59.854Z,68.78
2022-12-19T13:40:08.777Z,69.10
2022-12-19T13:41:47.895Z,69.35
2022-12-19T13:43:19.903Z,70.18
2022-12-19T13:44:22.427Z,69.48
2022-12-19T13:45:27.812Z,69.63
2022-12-19T13:46:42.797Z,68.65
2022-12-19T13:47:45.198Z,68.81
2022-12-19T13:48:50.134Z,68.27
2022-12-19T13:49:52.848Z,68.82
2022-12-19T13:50:55.497Z,69.20
2022-12-19T13:51:58.422Z,68.82
2022-12-19T13:52:59.943Z,68.84
2022-12-19T13:54:01.351Z,69.35
2022-12-19T13:55:03.773Z,68.95
2022-12-19T13:56:10.653Z,69.10
2022-12-19T13:57:30.129Z,68.76
2022-12-19T13:58:36.628Z,69.12
2022-12-19T13:59:40.574Z,68.92
2022-12-19T14:01:07.234Z,68.64
2022-12-19T14:02:48.551Z,68.49
2022-12-19T14:03:53.410Z,68.92
2022-12-19T14:04:55.375Z,69.02
2022-12-19T14:06:18.598Z,69.46
2022-12-19T14:07:30.414Z,69.65
2022-12-19T14:08:39.953Z,69.67
2022-12-19T14:11:30.565Z,69.16
2022-12-19T14:11:32.013Z,69.35
2022-12-19T14:13:49.216Z,69.29
2022-12-19T14:14:38.016Z,69.45
2022-12-19T14:15:43.776Z,69.20
2022-12-19T14:16:46.325Z,69.35
2022-12-19T14:17:49.198Z,68.85
2022-12-19T14:18:50.751Z,68.83
2022-12-19T14:19:53.540Z,68.91
2022-12-19T14:22:06.238Z,69.39
2022-12-19T14:22:43.408Z,69.66
2022-12-19T14:23:45.260Z,69.70
2022-12-19T14:27:14.228Z,70.15
2022-12-19T14:28:17.243Z,69.67
2022-12-19T14:28:20.291Z,69.43
2022-12-19T14:30:26.062Z,69.54
2022-12-19T14:31:04.170Z,68.84
2022-12-19T14:33:39.227Z,69.36
2022-12-19T14:34:04.664Z,69.50
2022-12-19T14:36:06.295Z,69.65
2022-12-19T14:36:46.915Z,69.34
2022-12-19T14:39:19.954Z,68.55
2022-12-19T14:39:29.646Z,68.59
2022-12-19T14:40:33.984Z,68.65
2022-12-19T14:43:06.314Z,68.96
2022-12-19T14:44:00.581Z,68.69
2022-12-19T14:51:09.060Z,69.55
2022-12-19T14:54:07.009Z,69.37
2022-12-19T14:54:10.263Z,68.95
2022-12-19T14:54:10.512Z,68.43
2022-12-19T14:54:25.519Z,69.51
2022-12-19T14:54:37.572Z,69.65
2022-12-19T14:56:24.728Z,69.03
2022-12-19T14:58:50.785Z,69.10
2022-12-19T14:58:57.802Z,68.82
2022-12-19T14:59:59.763Z,69.68
2022-12-19T15:01:09.628Z,69.38